sensor_id;sensor_type;location;lat;lon;timestamp;P1;durP1;ratioP1;P2;durP2;ratioP2
6101;SDS011;3081;50.584;7.032;2022-11-20T00:00:18;32.33;;;15.87;;
6101;SDS011;3081;50.584;7.032;2022-11-20T00:02:45;29.73;;;14.60;;
6101;SDS011;3081;50.584;7.032;2022-11-20T00:05:12;32.40;;;16.30;;
6101;SDS011;3081;50.584;7.032;2022-11-20T00:07:39;33.00;;;16.50;;
6101;SDS011;3081;50.584;7.032;2022-11-20T00:10:06;29.90;;;14.87;;
6101;SDS011;3081;50.584;7.032;2022-11-20T00:12:33;28.00;;;13.50;;
6101;SDS011;3081;50.584;7.032;2022-11-20T00:15:00;35.30;;;16.77;;
6101;SDS011;3081;50.584;7.032;2022-11-20T00:17:28;35.70;;;16.67;;
6101;SDS011;3081;50.584;7.032;2022-11-20T00:19:55;30.40;;;16.00;;
6101;SDS011;3081;50.584;7.032;2022-11-20T00:22:22;37.30;;;21.83;;
6101;SDS011;3081;50.584;7.032;2022-11-20T00:24:49;46.50;;;25.93;;
6101;SDS011;3081;50.584;7.032;2022-11-20T00:27:16;34.20;;;16.43;;
6101;SDS011;3081;50.584;7.032;2022-11-20T00:29:43;30.20;;;16.10;;
6101;SDS011;3081;50.584;7.032;2022-11-20T00:32:10;29.90;;;15.20;;
6101;SDS011;3081;50.584;7.032;2022-11-20T00:34:38;34.40;;;15.90;;
6101;SDS011;3081;50.584;7.032;2022-11-20T00:37:05;34.17;;;17.00;;
6101;SDS011;3081;50.584;7.032;2022-11-20T00:39:32;30.67;;;14.90;;
6101;SDS011;3081;50.584;7.032;2022-11-20T00:41:59;31.10;;;14.27;;
6101;SDS011;3081;50.584;7.032;2022-11-20T00:44:26;25.10;;;12.77;;
6101;SDS011;3081;50.584;7.032;2022-11-20T00:46:52;32.10;;;15.00;;
6101;SDS011;3081;50.584;7.032;2022-11-20T00:49:19;28.93;;;14.53;;
6101;SDS011;3081;50.584;7.032;2022-11-20T00:51:48;37.17;;;20.30;;
6101;SDS011;3081;50.584;7.032;2022-11-20T00:54:14;32.50;;;15.37;;
6101;SDS011;3081;50.584;7.032;2022-11-20T00:56:41;26.20;;;14.00;;
6101;SDS011;3081;50.584;7.032;2022-11-20T00:59:08;34.60;;;16.03;;
6101;SDS011;3081;50.584;7.032;2022-11-20T01:01:37;33.60;;;16.20;;
6101;SDS011;3081;50.584;7.032;2022-11-20T01:04:04;33.87;;;17.77;;
6101;SDS011;3081;50.584;7.032;2022-11-20T01:06:32;34.77;;;16.67;;
6101;SDS011;3081;50.584;7.032;2022-11-20T01:09:03;32.17;;;16.20;;
6101;SDS011;3081;50.584;7.032;2022-11-20T01:11:32;31.53;;;14.70;;
6101;SDS011;3081;50.584;7.032;2022-11-20T01:14:01;31.87;;;14.77;;
6101;SDS011;3081;50.584;7.032;2022-11-20T01:16:30;33.03;;;16.03;;
6101;SDS011;3081;50.584;7.032;2022-11-20T01:19:00;32.50;;;16.10;;
6101;SDS011;3081;50.584;7.032;2022-11-20T01:21:29;29.90;;;14.37;;
6101;SDS011;3081;50.584;7.032;2022-11-20T01:23:58;29.37;;;14.20;;
6101;SDS011;3081;50.584;7.032;2022-11-20T01:26:27;29.20;;;14.83;;
6101;SDS011;3081;50.584;7.032;2022-11-20T01:28:57;27.23;;;14.50;;
6101;SDS011;3081;50.584;7.032;2022-11-20T01:31:26;36.53;;;15.17;;
6101;SDS011;3081;50.584;7.032;2022-11-20T01:33:55;29.57;;;15.80;;
6101;SDS011;3081;50.584;7.032;2022-11-20T01:36:24;34.00;;;16.50;;
6101;SDS011;3081;50.584;7.032;2022-11-20T01:38:52;33.63;;;17.60;;
6101;SDS011;3081;50.584;7.032;2022-11-20T01:41:19;40.25;;;20.55;;
6101;SDS011;3081;50.584;7.032;2022-11-20T01:44:06;38.83;;;16.27;;
6101;SDS011;3081;50.584;7.032;2022-11-20T01:46:33;37.93;;;17.83;;
6101;SDS011;3081;50.584;7.032;2022-11-20T01:49:02;31.73;;;15.60;;
6101;SDS011;3081;50.584;7.032;2022-11-20T01:51:35;37.97;;;18.53;;
6101;SDS011;3081;50.584;7.032;2022-11-20T01:54:08;33.27;;;14.70;;
6101;SDS011;3081;50.584;7.032;2022-11-20T01:56:39;34.47;;;15.93;;
6101;SDS011;3081;50.584;7.032;2022-11-20T01:59:12;30.03;;;15.07;;
6101;SDS011;3081;50.584;7.032;2022-11-20T02:01:41;34.60;;;16.47;;
6101;SDS011;3081;50.584;7.032;2022-11-20T02:04:09;32.90;;;14.90;;
6101;SDS011;3081;50.584;7.032;2022-11-20T02:06:38;31.70;;;16.27;;
6101;SDS011;3081;50.584;7.032;2022-11-20T02:09:08;67.60;;;25.67;;
6101;SDS011;3081;50.584;7.032;2022-11-20T02:11:36;34.30;;;16.73;;
6101;SDS011;3081;50.584;7.032;2022-11-20T02:14:03;37.63;;;17.00;;
6101;SDS011;3081;50.584;7.032;2022-11-20T02:16:32;44.70;;;19.23;;
6101;SDS011;3081;50.584;7.032;2022-11-20T02:19:01;33.50;;;17.03;;
6101;SDS011;3081;50.584;7.032;2022-11-20T02:21:34;199.13;;;68.97;;
6101;SDS011;3081;50.584;7.032;2022-11-20T02:24:09;94.83;;;33.77;;
6101;SDS011;3081;50.584;7.032;2022-11-20T02:26:40;40.40;;;18.50;;
6101;SDS011;3081;50.584;7.032;2022-11-20T02:29:10;37.90;;;16.60;;
6101;SDS011;3081;50.584;7.032;2022-11-20T02:31:37;30.40;;;14.77;;
6101;SDS011;3081;50.584;7.032;2022-11-20T02:34:07;35.43;;;15.13;;
6101;SDS011;3081;50.584;7.032;2022-11-20T02:36:34;38.43;;;17.10;;
6101;SDS011;3081;50.584;7.032;2022-11-20T02:39:04;34.10;;;14.10;;
6101;SDS011;3081;50.584;7.032;2022-11-20T02:41:34;35.00;;;15.20;;
6101;SDS011;3081;50.584;7.032;2022-11-20T02:44:03;35.80;;;15.50;;
6101;SDS011;3081;50.584;7.032;2022-11-20T02:46:31;39.30;;;16.27;;
6101;SDS011;3081;50.584;7.032;2022-11-20T02:48:58;33.53;;;15.57;;
6101;SDS011;3081;50.584;7.032;2022-11-20T02:51:26;37.37;;;16.70;;
6101;SDS011;3081;50.584;7.032;2022-11-20T02:53:53;38.03;;;17.00;;
6101;SDS011;3081;50.584;7.032;2022-11-20T02:56:20;35.63;;;17.07;;
6101;SDS011;3081;50.584;7.032;2022-11-20T02:58:48;35.03;;;16.50;;
6101;SDS011;3081;50.584;7.032;2022-11-20T03:01:15;40.07;;;16.30;;
6101;SDS011;3081;50.584;7.032;2022-11-20T03:03:42;33.73;;;15.17;;
6101;SDS011;3081;50.584;7.032;2022-11-20T03:06:09;33.07;;;14.90;;
6101;SDS011;3081;50.584;7.032;2022-11-20T03:08:36;34.33;;;15.27;;
6101;SDS011;3081;50.584;7.032;2022-11-20T03:11:03;41.87;;;16.50;;
6101;SDS011;3081;50.584;7.032;2022-11-20T03:13:32;35.97;;;15.60;;
6101;SDS011;3081;50.584;7.032;2022-11-20T03:16:05;47.30;;;18.20;;
6101;SDS011;3081;50.584;7.032;2022-11-20T03:18:33;39.88;;;16.80;;
6101;SDS011;3081;50.584;7.032;2022-11-20T03:21:00;37.53;;;15.83;;
6101;SDS011;3081;50.584;7.032;2022-11-20T03:23:28;42.80;;;16.90;;
6101;SDS011;3081;50.584;7.032;2022-11-20T03:26:06;43.03;;;18.00;;
6101;SDS011;3081;50.584;7.032;2022-11-20T03:28:34;41.90;;;18.70;;
6101;SDS011;3081;50.584;7.032;2022-11-20T03:31:05;43.27;;;17.63;;
6101;SDS011;3081;50.584;7.032;2022-11-20T03:33:33;50.97;;;18.30;;
6101;SDS011;3081;50.584;7.032;2022-11-20T03:36:01;49.50;;;18.07;;
6101;SDS011;3081;50.584;7.032;2022-11-20T03:38:29;51.13;;;18.27;;
6101;SDS011;3081;50.584;7.032;2022-11-20T03:40:58;42.07;;;16.33;;
6101;SDS011;3081;50.584;7.032;2022-11-20T03:43:27;58.43;;;20.33;;
6101;SDS011;3081;50.584;7.032;2022-11-20T03:45:54;57.73;;;19.70;;
6101;SDS011;3081;50.584;7.032;2022-11-20T03:48:22;44.93;;;18.80;;
6101;SDS011;3081;50.584;7.032;2022-11-20T03:50:49;48.27;;;19.23;;
6101;SDS011;3081;50.584;7.032;2022-11-20T03:53:16;45.13;;;18.30;;
6101;SDS011;3081;50.584;7.032;2022-11-20T03:55:43;53.53;;;19.30;;
6101;SDS011;3081;50.584;7.032;2022-11-20T03:58:10;54.60;;;19.17;;
6101;SDS011;3081;50.584;7.032;2022-11-20T04:00:38;51.23;;;18.83;;
6101;SDS011;3081;50.584;7.032;2022-11-20T04:03:05;55.67;;;20.00;;
6101;SDS011;3081;50.584;7.032;2022-11-20T04:05:34;59.53;;;18.73;;
6101;SDS011;3081;50.584;7.032;2022-11-20T04:08:00;56.83;;;19.50;;
6101;SDS011;3081;50.584;7.032;2022-11-20T04:10:27;60.07;;;20.10;;
6101;SDS011;3081;50.584;7.032;2022-11-20T04:12:54;58.03;;;19.40;;
6101;SDS011;3081;50.584;7.032;2022-11-20T04:15:21;66.67;;;21.23;;
6101;SDS011;3081;50.584;7.032;2022-11-20T04:17:48;57.47;;;20.87;;
6101;SDS011;3081;50.584;7.032;2022-11-20T04:20:15;55.17;;;19.97;;
6101;SDS011;3081;50.584;7.032;2022-11-20T04:22:43;50.37;;;18.37;;
6101;SDS011;3081;50.584;7.032;2022-11-20T04:25:10;55.60;;;19.00;;
6101;SDS011;3081;50.584;7.032;2022-11-20T04:27:37;55.63;;;18.73;;
6101;SDS011;3081;50.584;7.032;2022-11-20T04:30:04;63.83;;;19.03;;
6101;SDS011;3081;50.584;7.032;2022-11-20T04:32:32;57.37;;;17.90;;
6101;SDS011;3081;50.584;7.032;2022-11-20T04:34:59;58.90;;;18.13;;
6101;SDS011;3081;50.584;7.032;2022-11-20T04:37:26;46.33;;;17.63;;
6101;SDS011;3081;50.584;7.032;2022-11-20T04:39:54;57.53;;;17.93;;
6101;SDS011;3081;50.584;7.032;2022-11-20T04:42:21;42.77;;;15.57;;
6101;SDS011;3081;50.584;7.032;2022-11-20T04:44:57;67.30;;;20.20;;
6101;SDS011;3081;50.584;7.032;2022-11-20T04:47:24;54.20;;;19.80;;
6101;SDS011;3081;50.584;7.032;2022-11-20T04:49:51;96.27;;;24.70;;
6101;SDS011;3081;50.584;7.032;2022-11-20T04:52:18;61.67;;;21.53;;
6101;SDS011;3081;50.584;7.032;2022-11-20T04:54:45;94.37;;;29.97;;
6101;SDS011;3081;50.584;7.032;2022-11-20T04:57:14;54.50;;;19.70;;
6101;SDS011;3081;50.584;7.032;2022-11-20T04:59:41;63.17;;;20.17;;
6101;SDS011;3081;50.584;7.032;2022-11-20T05:02:08;56.10;;;19.93;;
6101;SDS011;3081;50.584;7.032;2022-11-20T05:04:35;61.73;;;19.60;;
6101;SDS011;3081;50.584;7.032;2022-11-20T05:07:02;57.43;;;21.27;;
6101;SDS011;3081;50.584;7.032;2022-11-20T05:09:29;73.40;;;23.33;;
6101;SDS011;3081;50.584;7.032;2022-11-20T05:11:57;61.00;;;20.40;;
6101;SDS011;3081;50.584;7.032;2022-11-20T05:14:25;68.67;;;21.87;;
6101;SDS011;3081;50.584;7.032;2022-11-20T05:16:52;56.17;;;18.33;;
6101;SDS011;3081;50.584;7.032;2022-11-20T05:19:19;54.50;;;18.57;;
6101;SDS011;3081;50.584;7.032;2022-11-20T05:21:46;44.40;;;17.87;;
6101;SDS011;3081;50.584;7.032;2022-11-20T05:24:13;47.17;;;18.70;;
6101;SDS011;3081;50.584;7.032;2022-11-20T05:26:39;55.17;;;18.17;;
6101;SDS011;3081;50.584;7.032;2022-11-20T05:29:06;51.77;;;17.77;;
6101;SDS011;3081;50.584;7.032;2022-11-20T05:31:38;38.57;;;15.63;;
6101;SDS011;3081;50.584;7.032;2022-11-20T05:34:06;43.20;;;16.00;;
6101;SDS011;3081;50.584;7.032;2022-11-20T05:36:33;43.90;;;17.30;;
6101;SDS011;3081;50.584;7.032;2022-11-20T05:39:00;42.43;;;16.40;;
6101;SDS011;3081;50.584;7.032;2022-11-20T05:41:27;56.50;;;20.20;;
6101;SDS011;3081;50.584;7.032;2022-11-20T05:43:55;38.13;;;16.10;;
6101;SDS011;3081;50.584;7.032;2022-11-20T05:46:23;43.80;;;16.93;;
6101;SDS011;3081;50.584;7.032;2022-11-20T05:48:51;39.10;;;16.53;;
6101;SDS011;3081;50.584;7.032;2022-11-20T05:51:18;40.57;;;17.37;;
6101;SDS011;3081;50.584;7.032;2022-11-20T05:53:45;57.60;;;20.53;;
6101;SDS011;3081;50.584;7.032;2022-11-20T05:56:13;44.77;;;19.13;;
6101;SDS011;3081;50.584;7.032;2022-11-20T05:58:41;39.50;;;16.30;;
6101;SDS011;3081;50.584;7.032;2022-11-20T06:01:09;39.27;;;16.50;;
6101;SDS011;3081;50.584;7.032;2022-11-20T06:03:38;53.33;;;20.63;;
6101;SDS011;3081;50.584;7.032;2022-11-20T06:06:08;47.07;;;18.37;;
6101;SDS011;3081;50.584;7.032;2022-11-20T06:08:35;40.30;;;16.60;;
6101;SDS011;3081;50.584;7.032;2022-11-20T06:11:03;42.30;;;17.30;;
6101;SDS011;3081;50.584;7.032;2022-11-20T06:13:30;46.83;;;16.80;;
6101;SDS011;3081;50.584;7.032;2022-11-20T06:15:57;45.47;;;18.50;;
6101;SDS011;3081;50.584;7.032;2022-11-20T06:18:25;79.73;;;40.40;;
6101;SDS011;3081;50.584;7.032;2022-11-20T06:20:58;50.30;;;16.90;;
6101;SDS011;3081;50.584;7.032;2022-11-20T06:23:29;46.70;;;17.30;;
6101;SDS011;3081;50.584;7.032;2022-11-20T06:25:56;45.50;;;17.33;;
6101;SDS011;3081;50.584;7.032;2022-11-20T06:28:26;40.67;;;16.70;;
6101;SDS011;3081;50.584;7.032;2022-11-20T06:30:53;47.10;;;16.83;;
6101;SDS011;3081;50.584;7.032;2022-11-20T06:33:20;47.53;;;17.40;;
6101;SDS011;3081;50.584;7.032;2022-11-20T06:35:47;41.63;;;17.00;;
6101;SDS011;3081;50.584;7.032;2022-11-20T06:38:14;45.33;;;17.60;;
6101;SDS011;3081;50.584;7.032;2022-11-20T06:40:42;44.67;;;17.93;;
6101;SDS011;3081;50.584;7.032;2022-11-20T06:43:09;52.43;;;19.30;;
6101;SDS011;3081;50.584;7.032;2022-11-20T06:45:36;46.60;;;17.37;;
6101;SDS011;3081;50.584;7.032;2022-11-20T06:48:03;46.37;;;18.47;;
6101;SDS011;3081;50.584;7.032;2022-11-20T06:50:30;51.73;;;18.87;;
6101;SDS011;3081;50.584;7.032;2022-11-20T06:52:59;59.28;;;23.63;;
6101;SDS011;3081;50.584;7.032;2022-11-20T06:55:27;54.97;;;18.30;;
6101;SDS011;3081;50.584;7.032;2022-11-20T06:57:55;44.00;;;17.17;;
6101;SDS011;3081;50.584;7.032;2022-11-20T07:00:22;53.73;;;17.87;;
6101;SDS011;3081;50.584;7.032;2022-11-20T07:02:49;57.73;;;20.30;;
6101;SDS011;3081;50.584;7.032;2022-11-20T07:05:16;52.90;;;18.70;;
6101;SDS011;3081;50.584;7.032;2022-11-20T07:07:44;51.97;;;18.70;;
6101;SDS011;3081;50.584;7.032;2022-11-20T07:10:11;47.63;;;17.33;;
6101;SDS011;3081;50.584;7.032;2022-11-20T07:12:38;45.33;;;19.27;;
6101;SDS011;3081;50.584;7.032;2022-11-20T07:15:07;56.57;;;19.57;;
6101;SDS011;3081;50.584;7.032;2022-11-20T07:17:34;52.67;;;18.50;;
6101;SDS011;3081;50.584;7.032;2022-11-20T07:20:01;51.53;;;17.93;;
6101;SDS011;3081;50.584;7.032;2022-11-20T07:22:28;55.07;;;18.80;;
6101;SDS011;3081;50.584;7.032;2022-11-20T07:24:55;47.03;;;16.60;;
6101;SDS011;3081;50.584;7.032;2022-11-20T07:27:22;59.57;;;18.47;;
6101;SDS011;3081;50.584;7.032;2022-11-20T07:29:49;50.50;;;18.87;;
6101;SDS011;3081;50.584;7.032;2022-11-20T07:32:17;54.90;;;18.67;;
6101;SDS011;3081;50.584;7.032;2022-11-20T07:34:44;50.20;;;18.43;;
6101;SDS011;3081;50.584;7.032;2022-11-20T07:37:11;59.73;;;21.17;;
6101;SDS011;3081;50.584;7.032;2022-11-20T07:39:38;58.60;;;20.30;;
6101;SDS011;3081;50.584;7.032;2022-11-20T07:42:05;56.17;;;20.40;;
6101;SDS011;3081;50.584;7.032;2022-11-20T07:44:33;52.57;;;20.50;;
6101;SDS011;3081;50.584;7.032;2022-11-20T07:47:01;49.77;;;19.00;;
6101;SDS011;3081;50.584;7.032;2022-11-20T07:49:30;51.30;;;19.33;;
6101;SDS011;3081;50.584;7.032;2022-11-20T07:51:57;55.30;;;19.87;;
6101;SDS011;3081;50.584;7.032;2022-11-20T07:54:23;54.43;;;19.23;;
6101;SDS011;3081;50.584;7.032;2022-11-20T07:56:50;52.43;;;19.60;;
6101;SDS011;3081;50.584;7.032;2022-11-20T07:59:17;46.93;;;18.10;;
6101;SDS011;3081;50.584;7.032;2022-11-20T08:01:44;58.83;;;23.00;;
6101;SDS011;3081;50.584;7.032;2022-11-20T08:04:11;51.83;;;20.53;;
6101;SDS011;3081;50.584;7.032;2022-11-20T08:06:41;47.33;;;18.40;;
6101;SDS011;3081;50.584;7.032;2022-11-20T08:09:08;44.40;;;17.57;;
6101;SDS011;3081;50.584;7.032;2022-11-20T08:11:35;42.03;;;17.77;;
6101;SDS011;3081;50.584;7.032;2022-11-20T08:14:20;48.17;;;17.27;;
6101;SDS011;3081;50.584;7.032;2022-11-20T08:16:47;47.43;;;18.47;;
6101;SDS011;3081;50.584;7.032;2022-11-20T08:19:16;49.40;;;18.43;;
6101;SDS011;3081;50.584;7.032;2022-11-20T08:21:45;39.60;;;17.00;;
6101;SDS011;3081;50.584;7.032;2022-11-20T08:24:12;41.27;;;17.70;;
6101;SDS011;3081;50.584;7.032;2022-11-20T08:26:39;48.03;;;17.57;;
6101;SDS011;3081;50.584;7.032;2022-11-20T08:29:07;47.93;;;18.57;;
6101;SDS011;3081;50.584;7.032;2022-11-20T08:31:34;44.03;;;18.67;;
6101;SDS011;3081;50.584;7.032;2022-11-20T08:34:01;42.87;;;17.33;;
6101;SDS011;3081;50.584;7.032;2022-11-20T08:36:27;42.53;;;17.57;;
6101;SDS011;3081;50.584;7.032;2022-11-20T08:38:56;48.40;;;20.20;;
6101;SDS011;3081;50.584;7.032;2022-11-20T08:41:23;43.03;;;17.23;;
6101;SDS011;3081;50.584;7.032;2022-11-20T08:43:50;43.53;;;18.60;;
6101;SDS011;3081;50.584;7.032;2022-11-20T08:46:18;40.97;;;17.47;;
6101;SDS011;3081;50.584;7.032;2022-11-20T08:48:45;42.00;;;18.43;;
6101;SDS011;3081;50.584;7.032;2022-11-20T08:51:12;40.83;;;17.03;;
6101;SDS011;3081;50.584;7.032;2022-11-20T08:53:40;41.87;;;18.00;;
6101;SDS011;3081;50.584;7.032;2022-11-20T08:56:09;39.10;;;16.30;;
6101;SDS011;3081;50.584;7.032;2022-11-20T08:58:36;38.27;;;17.57;;
6101;SDS011;3081;50.584;7.032;2022-11-20T09:01:03;41.90;;;17.47;;
6101;SDS011;3081;50.584;7.032;2022-11-20T09:03:30;46.60;;;19.97;;
6101;SDS011;3081;50.584;7.032;2022-11-20T09:05:58;36.50;;;15.87;;
6101;SDS011;3081;50.584;7.032;2022-11-20T09:08:25;43.87;;;16.73;;
6101;SDS011;3081;50.584;7.032;2022-11-20T09:10:52;44.23;;;18.30;;
6101;SDS011;3081;50.584;7.032;2022-11-20T09:13:22;41.60;;;16.33;;
6101;SDS011;3081;50.584;7.032;2022-11-20T09:15:52;38.10;;;16.77;;
6101;SDS011;3081;50.584;7.032;2022-11-20T09:18:20;35.70;;;15.97;;
6101;SDS011;3081;50.584;7.032;2022-11-20T09:20:47;39.97;;;18.07;;
6101;SDS011;3081;50.584;7.032;2022-11-20T09:23:14;40.67;;;16.90;;
6101;SDS011;3081;50.584;7.032;2022-11-20T09:25:41;50.00;;;20.23;;
6101;SDS011;3081;50.584;7.032;2022-11-20T09:28:08;41.57;;;19.13;;
6101;SDS011;3081;50.584;7.032;2022-11-20T09:30:36;37.53;;;17.87;;
6101;SDS011;3081;50.584;7.032;2022-11-20T09:33:04;38.60;;;18.47;;
6101;SDS011;3081;50.584;7.032;2022-11-20T09:35:31;46.47;;;18.43;;
6101;SDS011;3081;50.584;7.032;2022-11-20T09:37:58;43.77;;;20.10;;
6101;SDS011;3081;50.584;7.032;2022-11-20T09:40:30;33.73;;;17.70;;
6101;SDS011;3081;50.584;7.032;2022-11-20T09:42:58;35.83;;;16.83;;
6101;SDS011;3081;50.584;7.032;2022-11-20T09:45:39;38.10;;;17.03;;
6101;SDS011;3081;50.584;7.032;2022-11-20T09:51:09;34.37;;;17.40;;
6101;SDS011;3081;50.584;7.032;2022-11-20T09:53:46;44.30;;;20.67;;
6101;SDS011;3081;50.584;7.032;2022-11-20T09:56:26;37.33;;;17.63;;
6101;SDS011;3081;50.584;7.032;2022-11-20T09:58:55;34.93;;;15.50;;
6101;SDS011;3081;50.584;7.032;2022-11-20T10:01:29;29.03;;;13.90;;
6101;SDS011;3081;50.584;7.032;2022-11-20T10:03:58;29.03;;;13.00;;
6101;SDS011;3081;50.584;7.032;2022-11-20T10:06:29;36.80;;;18.07;;
6101;SDS011;3081;50.584;7.032;2022-11-20T10:09:01;34.60;;;15.80;;
6101;SDS011;3081;50.584;7.032;2022-11-20T10:11:46;34.00;;;15.80;;
6101;SDS011;3081;50.584;7.032;2022-11-20T10:14:24;42.73;;;19.63;;
6101;SDS011;3081;50.584;7.032;2022-11-20T10:16:59;36.17;;;16.67;;
6101;SDS011;3081;50.584;7.032;2022-11-20T10:19:45;39.53;;;19.27;;
6101;SDS011;3081;50.584;7.032;2022-11-20T10:22:22;37.27;;;19.57;;
6101;SDS011;3081;50.584;7.032;2022-11-20T10:25:02;43.23;;;18.93;;
6101;SDS011;3081;50.584;7.032;2022-11-20T10:30:40;33.47;;;16.77;;
6101;SDS011;3081;50.584;7.032;2022-11-20T10:33:13;37.90;;;16.60;;
6101;SDS011;3081;50.584;7.032;2022-11-20T10:35:44;37.03;;;18.00;;
6101;SDS011;3081;50.584;7.032;2022-11-20T10:38:18;31.07;;;15.00;;
6101;SDS011;3081;50.584;7.032;2022-11-20T10:40:48;30.67;;;14.70;;
6101;SDS011;3081;50.584;7.032;2022-11-20T10:43:29;31.80;;;14.87;;
6101;SDS011;3081;50.584;7.032;2022-11-20T10:46:00;34.27;;;16.07;;
6101;SDS011;3081;50.584;7.032;2022-11-20T10:48:32;30.37;;;15.50;;
6101;SDS011;3081;50.584;7.032;2022-11-20T10:51:07;28.87;;;13.87;;
6101;SDS011;3081;50.584;7.032;2022-11-20T10:53:45;28.93;;;15.43;;
6101;SDS011;3081;50.584;7.032;2022-11-20T10:56:20;26.03;;;13.57;;
6101;SDS011;3081;50.584;7.032;2022-11-20T10:59:00;27.17;;;13.50;;
6101;SDS011;3081;50.584;7.032;2022-11-20T11:01:38;30.43;;;14.40;;
6101;SDS011;3081;50.584;7.032;2022-11-20T11:04:08;32.53;;;16.13;;
6101;SDS011;3081;50.584;7.032;2022-11-20T11:06:49;29.87;;;14.67;;
6101;SDS011;3081;50.584;7.032;2022-11-20T11:09:22;32.13;;;17.23;;
6101;SDS011;3081;50.584;7.032;2022-11-20T11:11:56;32.67;;;15.30;;
6101;SDS011;3081;50.584;7.032;2022-11-20T11:14:23;32.73;;;16.43;;
6101;SDS011;3081;50.584;7.032;2022-11-20T11:16:50;30.93;;;15.73;;
6101;SDS011;3081;50.584;7.032;2022-11-20T11:19:20;34.53;;;17.60;;
6101;SDS011;3081;50.584;7.032;2022-11-20T11:21:47;39.87;;;18.37;;
6101;SDS011;3081;50.584;7.032;2022-11-20T11:24:19;38.90;;;20.50;;
6101;SDS011;3081;50.584;7.032;2022-11-20T11:26:52;43.67;;;20.13;;
6101;SDS011;3081;50.584;7.032;2022-11-20T11:29:22;41.13;;;19.27;;
6101;SDS011;3081;50.584;7.032;2022-11-20T11:32:02;38.90;;;18.47;;
6101;SDS011;3081;50.584;7.032;2022-11-20T11:34:32;36.50;;;17.77;;
6101;SDS011;3081;50.584;7.032;2022-11-20T11:36:59;32.77;;;16.30;;
6101;SDS011;3081;50.584;7.032;2022-11-20T11:39:28;33.73;;;16.07;;
6101;SDS011;3081;50.584;7.032;2022-11-20T11:41:58;40.10;;;19.60;;
6101;SDS011;3081;50.584;7.032;2022-11-20T11:44:27;36.93;;;19.70;;
6101;SDS011;3081;50.584;7.032;2022-11-20T11:47:17;34.20;;;18.60;;
6101;SDS011;3081;50.584;7.032;2022-11-20T11:50:02;32.23;;;16.73;;
6101;SDS011;3081;50.584;7.032;2022-11-20T11:52:41;35.25;;;19.10;;
6101;SDS011;3081;50.584;7.032;2022-11-20T11:55:12;32.23;;;16.07;;
6101;SDS011;3081;50.584;7.032;2022-11-20T11:57:44;30.93;;;14.60;;
6101;SDS011;3081;50.584;7.032;2022-11-20T12:00:15;31.07;;;16.47;;
6101;SDS011;3081;50.584;7.032;2022-11-20T12:02:48;29.00;;;15.13;;
6101;SDS011;3081;50.584;7.032;2022-11-20T12:05:26;31.70;;;15.60;;
6101;SDS011;3081;50.584;7.032;2022-11-20T12:07:55;31.30;;;17.20;;
6101;SDS011;3081;50.584;7.032;2022-11-20T12:10:32;38.10;;;16.50;;
6101;SDS011;3081;50.584;7.032;2022-11-20T12:13:08;26.93;;;13.63;;
6101;SDS011;3081;50.584;7.032;2022-11-20T12:15:44;30.73;;;15.00;;
6101;SDS011;3081;50.584;7.032;2022-11-20T12:18:14;26.57;;;13.40;;
6101;SDS011;3081;50.584;7.032;2022-11-20T12:20:45;26.00;;;12.50;;
6101;SDS011;3081;50.584;7.032;2022-11-20T12:23:24;27.60;;;14.30;;
6101;SDS011;3081;50.584;7.032;2022-11-20T12:25:56;28.47;;;13.37;;
6101;SDS011;3081;50.584;7.032;2022-11-20T12:28:33;24.67;;;14.10;;
6101;SDS011;3081;50.584;7.032;2022-11-20T12:31:14;32.10;;;17.00;;
6101;SDS011;3081;50.584;7.032;2022-11-20T12:34:06;32.70;;;17.77;;
6101;SDS011;3081;50.584;7.032;2022-11-20T12:36:46;40.37;;;21.27;;
6101;SDS011;3081;50.584;7.032;2022-11-20T12:39:21;30.20;;;16.93;;
6101;SDS011;3081;50.584;7.032;2022-11-20T12:42:01;25.83;;;14.47;;
6101;SDS011;3081;50.584;7.032;2022-11-20T12:44:59;21.93;;;11.73;;
6101;SDS011;3081;50.584;7.032;2022-11-20T12:48:02;23.50;;;11.63;;
6101;SDS011;3081;50.584;7.032;2022-11-20T12:50:47;24.70;;;13.73;;
6101;SDS011;3081;50.584;7.032;2022-11-20T12:53:27;22.63;;;10.93;;
6101;SDS011;3081;50.584;7.032;2022-11-20T12:56:01;26.30;;;12.77;;
6101;SDS011;3081;50.584;7.032;2022-11-20T12:58:36;22.60;;;11.10;;
6101;SDS011;3081;50.584;7.032;2022-11-20T13:01:13;21.23;;;11.60;;
6101;SDS011;3081;50.584;7.032;2022-11-20T13:04:01;35.13;;;16.30;;
6101;SDS011;3081;50.584;7.032;2022-11-20T13:06:41;34.20;;;19.20;;
6101;SDS011;3081;50.584;7.032;2022-11-20T13:09:11;35.90;;;21.20;;
6101;SDS011;3081;50.584;7.032;2022-11-20T13:11:41;24.23;;;11.87;;
6101;SDS011;3081;50.584;7.032;2022-11-20T13:14:17;26.77;;;15.30;;
6101;SDS011;3081;50.584;7.032;2022-11-20T13:16:53;28.67;;;13.57;;
6101;SDS011;3081;50.584;7.032;2022-11-20T13:19:24;24.77;;;13.83;;
6101;SDS011;3081;50.584;7.032;2022-11-20T13:21:52;27.13;;;15.00;;
6101;SDS011;3081;50.584;7.032;2022-11-20T13:24:29;27.10;;;14.93;;
6101;SDS011;3081;50.584;7.032;2022-11-20T13:27:01;32.10;;;15.83;;
6101;SDS011;3081;50.584;7.032;2022-11-20T13:29:45;28.60;;;15.70;;
6101;SDS011;3081;50.584;7.032;2022-11-20T13:32:13;28.70;;;15.73;;
6101;SDS011;3081;50.584;7.032;2022-11-20T13:34:51;27.50;;;15.00;;
6101;SDS011;3081;50.584;7.032;2022-11-20T13:37:24;32.13;;;16.23;;
6101;SDS011;3081;50.584;7.032;2022-11-20T13:40:04;26.40;;;14.40;;
6101;SDS011;3081;50.584;7.032;2022-11-20T13:42:37;25.20;;;13.77;;
6101;SDS011;3081;50.584;7.032;2022-11-20T13:45:10;31.13;;;17.60;;
6101;SDS011;3081;50.584;7.032;2022-11-20T13:47:47;25.57;;;12.17;;
6101;SDS011;3081;50.584;7.032;2022-11-20T13:50:14;28.00;;;15.97;;
6101;SDS011;3081;50.584;7.032;2022-11-20T13:52:44;25.87;;;13.80;;
6101;SDS011;3081;50.584;7.032;2022-11-20T13:55:21;26.03;;;14.17;;
6101;SDS011;3081;50.584;7.032;2022-11-20T14:00:43;22.87;;;12.37;;
6101;SDS011;3081;50.584;7.032;2022-11-20T14:03:16;20.10;;;10.13;;
6101;SDS011;3081;50.584;7.032;2022-11-20T14:05:49;21.83;;;11.10;;
6101;SDS011;3081;50.584;7.032;2022-11-20T14:08:28;20.73;;;11.03;;
6101;SDS011;3081;50.584;7.032;2022-11-20T14:11:03;18.10;;;10.23;;
6101;SDS011;3081;50.584;7.032;2022-11-20T14:13:31;23.17;;;9.57;;
6101;SDS011;3081;50.584;7.032;2022-11-20T14:15:58;19.80;;;9.37;;
6101;SDS011;3081;50.584;7.032;2022-11-20T14:18:26;20.98;;;11.20;;
6101;SDS011;3081;50.584;7.032;2022-11-20T14:20:53;21.67;;;9.13;;
6101;SDS011;3081;50.584;7.032;2022-11-20T14:23:23;17.97;;;8.70;;
6101;SDS011;3081;50.584;7.032;2022-11-20T14:25:52;14.90;;;9.10;;
6101;SDS011;3081;50.584;7.032;2022-11-20T14:28:21;20.33;;;11.33;;
6101;SDS011;3081;50.584;7.032;2022-11-20T14:30:52;20.63;;;10.90;;
6101;SDS011;3081;50.584;7.032;2022-11-20T14:33:20;12.40;;;6.77;;
6101;SDS011;3081;50.584;7.032;2022-11-20T14:35:50;11.10;;;6.17;;
6101;SDS011;3081;50.584;7.032;2022-11-20T14:38:20;7.90;;;3.90;;
6101;SDS011;3081;50.584;7.032;2022-11-20T14:40:49;5.57;;;2.30;;
6101;SDS011;3081;50.584;7.032;2022-11-20T14:43:18;6.77;;;2.60;;
6101;SDS011;3081;50.584;7.032;2022-11-20T14:45:48;4.33;;;2.63;;
6101;SDS011;3081;50.584;7.032;2022-11-20T14:48:22;5.03;;;1.57;;
6101;SDS011;3081;50.584;7.032;2022-11-20T14:50:53;5.70;;;2.20;;
6101;SDS011;3081;50.584;7.032;2022-11-20T14:53:22;10.67;;;3.00;;
6101;SDS011;3081;50.584;7.032;2022-11-20T14:55:54;6.23;;;1.47;;
6101;SDS011;3081;50.584;7.032;2022-11-20T14:58:25;4.60;;;1.93;;
6101;SDS011;3081;50.584;7.032;2022-11-20T15:00:53;3.70;;;1.07;;
6101;SDS011;3081;50.584;7.032;2022-11-20T15:03:22;3.80;;;1.43;;
6101;SDS011;3081;50.584;7.032;2022-11-20T15:05:49;3.60;;;1.40;;
6101;SDS011;3081;50.584;7.032;2022-11-20T15:08:16;2.70;;;0.90;;
6101;SDS011;3081;50.584;7.032;2022-11-20T15:10:47;5.40;;;1.47;;
6101;SDS011;3081;50.584;7.032;2022-11-20T15:13:17;3.25;;;1.15;;